Terminal Aerodrome Forecast
Issued by NWS Corpus Christi, TX

Current Version | Previous Version | Text Only | Print | Product List | Glossary On
Versions: 1 2 3 4 5 6 7 8 9 10 11 12 13 14 15 16
932
FTUS44 KCRP 201125
TAFVCT
TAF
KVCT 201125Z 2012/2112 VRB04KT P6SM BKN250
     FM201900 14006KT P6SM SCT050
     FM211000 VRB03KT 4SM BR FEW020=

USA.gov is the U.S. government's official web portal to all federal, state and local government web resources and services.